createdAt,value
2022-11-24T00:01:21.342Z,18.42
2022-11-24T00:04:00.325Z,17.45
2022-11-24T00:06:27.949Z,17.52
2022-11-24T00:08:56.178Z,18.50
2022-11-24T00:11:25.968Z,18.60
2022-11-24T00:13:52.847Z,19.25
2022-11-24T00:16:22.834Z,19.30
2022-11-24T00:18:51.398Z,18.05
2022-11-24T00:21:19.336Z,19.83
2022-11-24T00:23:46.537Z,20.05
2022-11-24T00:26:21.877Z,18.92
2022-11-24T00:28:49.987Z,19.17
2022-11-24T00:31:23.507Z,19.00
2022-11-24T00:33:52.573Z,18.25
2022-11-24T00:36:20.230Z,18.38
2022-11-24T00:38:47.402Z,17.85
2022-11-24T00:41:14.546Z,17.60
2022-11-24T00:43:47.311Z,17.02
2022-11-24T00:46:14.303Z,18.33
2022-11-24T00:48:41.798Z,17.23
2022-11-24T00:51:10.922Z,18.33
2022-11-24T00:53:37.679Z,17.95
2022-11-24T00:56:04.928Z,17.25
2022-11-24T00:58:32.806Z,18.13
2022-11-24T01:01:12.867Z,16.80
2022-11-24T01:03:40.290Z,15.32
2022-11-24T01:06:12.972Z,16.30
2022-11-24T01:08:40.157Z,15.65
2022-11-24T01:11:17.479Z,16.13
2022-11-24T01:13:46.394Z,15.65
2022-11-24T01:16:18.871Z,15.98
2022-11-24T01:18:46.237Z,16.52
2022-11-24T01:21:13.750Z,16.52
2022-11-24T01:23:40.770Z,17.27
2022-11-24T01:26:10.058Z,16.80
2022-11-24T01:28:40.583Z,17.60
2022-11-24T01:31:09.501Z,17.45
2022-11-24T01:33:37.114Z,16.17
2022-11-24T01:36:05.150Z,16.27
2022-11-24T01:38:32.171Z,17.42
2022-11-24T01:41:09.712Z,16.88
2022-11-24T01:43:36.606Z,17.10
2022-11-24T01:46:43.453Z,17.33
2022-11-24T01:49:30.001Z,16.17
2022-11-24T01:52:12.853Z,17.23
2022-11-24T01:54:44.413Z,16.58
2022-11-24T01:57:25.870Z,16.83
2022-11-24T01:59:57.329Z,15.57
2022-11-24T02:02:28.201Z,16.08
2022-11-24T02:04:58.711Z,16.90
2022-11-24T02:07:26.505Z,15.90
2022-11-24T02:09:57.741Z,15.25
2022-11-24T02:12:26.457Z,16.48
2022-11-24T02:14:54.839Z,17.65
2022-11-24T02:17:24.248Z,16.42
2022-11-24T02:20:04.529Z,15.93
2022-11-24T02:22:57.758Z,16.05
2022-11-24T02:25:45.714Z,16.50
2022-11-24T02:28:19.161Z,16.20
2022-11-24T02:30:46.660Z,15.90
2022-11-24T02:33:13.957Z,15.50
2022-11-24T02:35:40.946Z,15.77
2022-11-24T02:38:10.297Z,15.57
2022-11-24T02:40:37.191Z,16.50
2022-11-24T02:43:09.776Z,15.68
2022-11-24T02:45:36.393Z,17.65
2022-11-24T02:48:04.044Z,16.10
2022-11-24T02:50:30.775Z,16.92
2022-11-24T02:52:57.353Z,15.18
2022-11-24T02:55:23.957Z,17.15
2022-11-24T02:57:50.867Z,17.30
2022-11-24T03:00:18.317Z,16.63
2022-11-24T03:02:45.120Z,17.40
2022-11-24T03:05:12.657Z,16.25
2022-11-24T03:07:39.426Z,15.93
2022-11-24T03:10:06.621Z,16.40
2022-11-24T03:12:33.305Z,15.52
2022-11-24T03:15:00.019Z,18.88
2022-11-24T03:17:26.665Z,19.65
2022-11-24T03:19:53.254Z,16.40
2022-11-24T03:22:19.856Z,18.30
2022-11-24T03:24:46.910Z,17.15
2022-11-24T03:27:13.664Z,17.00
2022-11-24T03:29:40.365Z,18.10
2022-11-24T03:32:09.718Z,16.73
2022-11-24T03:34:36.495Z,17.80
2022-11-24T03:37:03.204Z,18.38
2022-11-24T03:39:29.841Z,17.60
2022-11-24T03:41:56.995Z,16.50
2022-11-24T03:44:23.602Z,17.83
2022-11-24T03:46:51.869Z,17.77
2022-11-24T03:49:18.989Z,17.15
2022-11-24T03:51:45.631Z,16.15
2022-11-24T03:54:12.500Z,16.98
2022-11-24T03:56:39.116Z,16.00
2022-11-24T03:59:05.757Z,17.80
2022-11-24T04:01:32.403Z,15.95
2022-11-24T04:03:59.055Z,17.45
2022-11-24T04:06:25.770Z,15.30
2022-11-24T04:08:52.386Z,18.10
2022-11-24T04:11:37.497Z,17.65
2022-11-24T04:14:06.703Z,17.10
2022-11-24T04:16:37.303Z,17.50
2022-11-24T04:19:03.909Z,16.58
2022-11-24T04:21:30.510Z,17.60
2022-11-24T04:23:57.675Z,18.20
2022-11-24T04:26:24.285Z,20.75
2022-11-24T04:28:50.883Z,18.55
2022-11-24T04:31:18.374Z,23.63
2022-11-24T04:33:45.274Z,18.80
2022-11-24T04:36:12.080Z,18.52
2022-11-24T04:39:24.932Z,18.25
2022-11-24T04:41:25.368Z,20.35
2022-11-24T04:43:52.062Z,19.23
2022-11-24T04:46:18.828Z,18.23
2022-11-24T04:48:45.530Z,19.02
2022-11-24T04:51:14.293Z,18.45
2022-11-24T04:53:41.280Z,17.80
2022-11-24T04:56:08.546Z,18.15
2022-11-24T04:58:35.787Z,18.00
2022-11-24T05:01:05.953Z,18.80
2022-11-24T05:03:32.550Z,17.70
2022-11-24T05:05:59.705Z,17.70
2022-11-24T05:08:26.869Z,17.75
2022-11-24T05:10:53.533Z,19.75
2022-11-24T05:13:20.142Z,18.25
2022-11-24T05:15:46.824Z,18.85
2022-11-24T05:18:17.747Z,20.38
2022-11-24T05:20:47.511Z,18.00
2022-11-24T05:23:14.538Z,19.30
2022-11-24T05:25:47.250Z,18.55
2022-11-24T05:28:14.522Z,19.05
2022-11-24T05:30:42.172Z,18.67
2022-11-24T05:33:12.616Z,20.67
2022-11-24T05:35:39.297Z,19.45
2022-11-24T05:38:06.421Z,19.75
2022-11-24T05:40:33.088Z,19.27
2022-11-24T05:42:59.773Z,19.58
2022-11-24T05:45:26.448Z,18.80
2022-11-24T05:47:53.812Z,20.25
2022-11-24T05:50:22.134Z,19.60
2022-11-24T05:52:49.761Z,19.33
2022-11-24T05:55:19.325Z,19.17
2022-11-24T05:57:47.580Z,18.83
2022-11-24T06:00:18.075Z,18.45
2022-11-24T06:02:44.779Z,19.20
2022-11-24T06:05:11.499Z,18.30
2022-11-24T06:07:38.212Z,18.75
2022-11-24T06:10:05.425Z,19.58
2022-11-24T06:12:32.067Z,19.35
2022-11-24T06:14:58.721Z,19.38
2022-11-24T06:17:25.334Z,18.98
2022-11-24T06:19:51.988Z,19.98
2022-11-24T06:22:19.214Z,19.33
2022-11-24T06:24:46.608Z,19.55
2022-11-24T06:27:14.678Z,20.15
2022-11-24T06:29:41.564Z,19.70
2022-11-24T06:32:08.498Z,19.00
2022-11-24T06:34:35.530Z,19.00
2022-11-24T06:37:02.777Z,19.52
2022-11-24T06:39:29.381Z,18.05
2022-11-24T06:41:56.005Z,17.35
2022-11-24T06:44:23.282Z,17.17
2022-11-24T06:46:49.905Z,16.65
2022-11-24T06:49:16.598Z,18.27
2022-11-24T06:51:45.918Z,16.60
2022-11-24T06:54:17.460Z,16.88
2022-11-24T06:56:44.363Z,16.20
2022-11-24T06:59:17.507Z,16.55
2022-11-24T07:01:44.405Z,16.02
2022-11-24T07:04:11.341Z,16.73
2022-11-24T07:06:39.882Z,15.63
2022-11-24T07:09:06.981Z,16.40
2022-11-24T07:11:33.660Z,15.98
2022-11-24T07:14:00.505Z,16.20
2022-11-24T07:16:27.817Z,17.05
2022-11-24T07:18:55.125Z,16.30
2022-11-24T07:21:23.685Z,17.23
2022-11-24T07:23:56.018Z,16.80
2022-11-24T07:26:23.690Z,16.23
2022-11-24T07:28:51.146Z,16.20
2022-11-24T07:31:20.400Z,17.63
2022-11-24T07:33:52.431Z,17.33
2022-11-24T07:36:19.223Z,18.17
2022-11-24T07:38:46.199Z,16.38
2022-11-24T07:41:14.534Z,15.65
2022-11-24T07:43:41.248Z,15.52
2022-11-24T07:46:11.549Z,15.40
2022-11-24T07:48:38.294Z,15.55
2022-11-24T07:51:06.401Z,14.95
2022-11-24T07:53:34.225Z,15.75
2022-11-24T07:56:02.739Z,15.57
2022-11-24T07:58:32.884Z,15.18
2022-11-24T08:01:00.251Z,16.15
2022-11-24T08:03:30.040Z,16.80
2022-11-24T08:06:23.049Z,17.30
2022-11-24T08:08:47.413Z,16.63
2022-11-24T08:11:16.301Z,16.40
2022-11-24T08:13:43.382Z,17.17
2022-11-24T08:16:15.231Z,17.20
2022-11-24T08:18:42.980Z,14.90
2022-11-24T08:21:14.188Z,16.95
2022-11-24T08:23:41.592Z,17.70
2022-11-24T08:26:11.702Z,17.38
2022-11-24T08:28:38.458Z,17.52
2022-11-24T08:31:27.001Z,24.17
2022-11-24T08:33:56.227Z,24.30
2022-11-24T08:36:23.022Z,21.52
2022-11-24T08:38:56.220Z,19.40
2022-11-24T08:41:23.578Z,19.35
2022-11-24T08:43:50.391Z,19.83
2022-11-24T08:46:18.128Z,20.80
2022-11-24T08:48:52.382Z,20.77
2022-11-24T08:51:21.586Z,20.45
2022-11-24T08:53:48.400Z,23.55
2022-11-24T08:56:15.362Z,20.08
2022-11-24T08:58:42.455Z,18.70
2022-11-24T09:01:15.282Z,18.80
2022-11-24T09:03:49.707Z,20.80
2022-11-24T09:06:19.081Z,20.05
2022-11-24T09:08:45.716Z,20.05
2022-11-24T09:11:15.613Z,21.55
2022-11-24T09:13:43.185Z,22.90
2022-11-24T09:16:13.871Z,21.83
2022-11-24T09:18:40.818Z,20.90
2022-11-24T09:21:18.808Z,21.13
2022-11-24T09:23:50.707Z,21.95
2022-11-24T09:26:21.674Z,22.05
2022-11-24T09:28:50.055Z,21.02
2022-11-24T09:31:18.011Z,21.75
2022-11-24T09:33:45.627Z,20.15
2022-11-24T09:36:13.383Z,21.80
2022-11-24T09:38:40.801Z,22.08
2022-11-24T09:41:28.502Z,24.05
2022-11-24T09:44:29.345Z,25.60
2022-11-24T09:47:24.538Z,24.13
2022-11-24T09:49:58.687Z,22.92
2022-11-24T09:52:39.368Z,24.55
2022-11-24T09:55:25.730Z,24.90
2022-11-24T09:58:03.286Z,27.40
2022-11-24T10:00:30.355Z,25.35
2022-11-24T10:02:57.890Z,26.95
2022-11-24T10:05:28.482Z,24.42
2022-11-24T10:08:35.106Z,24.23
2022-11-24T10:11:08.163Z,27.85
2022-11-24T10:13:41.046Z,26.65
2022-11-24T10:16:33.726Z,29.20
2022-11-24T10:19:12.918Z,25.88
2022-11-24T10:22:09.020Z,26.13
2022-11-24T10:25:01.642Z,27.27
2022-11-24T10:27:43.296Z,28.63
2022-11-24T10:30:22.210Z,28.58
2022-11-24T10:32:54.110Z,28.08
2022-11-24T10:35:49.365Z,28.35
2022-11-24T10:38:21.811Z,27.98
2022-11-24T10:41:16.044Z,27.05
2022-11-24T10:43:43.294Z,30.40
2022-11-24T10:46:39.500Z,30.05
2022-11-24T10:49:06.621Z,31.70
2022-11-24T10:51:51.825Z,31.60
2022-11-24T10:54:23.745Z,26.98
2022-11-24T10:56:52.425Z,26.48
2022-11-24T10:59:29.054Z,27.17
2022-11-24T11:01:56.052Z,27.33
2022-11-24T11:04:28.985Z,27.85
2022-11-24T11:07:21.279Z,28.00
2022-11-24T11:09:48.783Z,27.52
2022-11-24T11:15:30.389Z,26.58
2022-11-24T11:18:01.125Z,23.35
2022-11-24T11:20:31.628Z,23.92
2022-11-24T11:23:01.924Z,23.17
2022-11-24T11:25:35.828Z,20.42
2022-11-24T11:28:29.124Z,18.97
2022-11-24T11:31:16.643Z,20.27
2022-11-24T11:34:20.874Z,21.02
2022-11-24T11:36:54.002Z,21.02
2022-11-24T11:39:34.737Z,21.95
2022-11-24T11:45:35.870Z,20.42
2022-11-24T11:48:02.933Z,23.95
2022-11-24T11:51:21.123Z,22.55
2022-11-24T11:53:46.334Z,24.23
2022-11-24T11:56:22.340Z,22.15
2022-11-24T11:59:01.913Z,24.38
2022-11-24T12:01:51.484Z,22.35
2022-11-24T12:04:43.967Z,26.40
2022-11-24T12:07:46.592Z,22.75
2022-11-24T12:10:36.516Z,21.90
2022-11-24T12:13:34.401Z,31.67
2022-11-24T12:16:19.023Z,22.67
2022-11-24T12:19:24.353Z,23.35
2022-11-24T12:22:21.692Z,24.30
2022-11-24T12:24:52.035Z,23.70
2022-11-24T12:27:34.200Z,24.95
2022-11-24T12:30:15.961Z,24.88
2022-11-24T12:33:09.045Z,25.65
2022-11-24T12:35:44.130Z,25.73
2022-11-24T12:38:28.441Z,23.60
2022-11-24T12:41:40.261Z,22.55
2022-11-24T12:44:11.153Z,20.63
2022-11-24T12:46:49.858Z,21.33
2022-11-24T12:49:53.462Z,20.45
2022-11-24T12:52:28.312Z,21.85
2022-11-24T12:54:55.880Z,21.42
2022-11-24T12:57:39.374Z,22.42
2022-11-24T13:00:35.093Z,22.52
2022-11-24T13:03:40.353Z,21.33
2022-11-24T13:06:27.444Z,22.43
2022-11-24T13:08:54.374Z,25.70
2022-11-24T13:11:21.229Z,22.48
2022-11-24T13:14:18.505Z,21.27
2022-11-24T13:19:38.817Z,21.20
2022-11-24T13:22:08.399Z,20.23
2022-11-24T13:24:37.890Z,19.88
2022-11-24T13:27:16.701Z,21.27
2022-11-24T13:29:53.357Z,23.17
2022-11-24T13:32:20.945Z,22.17
2022-11-24T13:34:49.618Z,23.80
2022-11-24T13:37:33.762Z,23.27
2022-11-24T13:40:11.821Z,24.98
2022-11-24T13:43:01.290Z,25.52
2022-11-24T13:45:40.687Z,25.92
2022-11-24T13:48:20.357Z,27.33
2022-11-24T13:50:50.731Z,24.08
2022-11-24T13:53:36.065Z,26.65
2022-11-24T13:56:02.709Z,27.95
2022-11-24T13:58:38.353Z,26.98
2022-11-24T14:01:12.646Z,28.42
2022-11-24T14:06:52.297Z,25.23
2022-11-24T14:09:35.594Z,27.50
2022-11-24T14:12:17.270Z,29.00
2022-11-24T14:14:46.181Z,33.55
2022-11-24T14:17:20.659Z,36.90
2022-11-24T14:19:50.163Z,37.65
2022-11-24T14:22:22.933Z,38.28
2022-11-24T14:24:58.199Z,31.83
2022-11-24T14:27:35.690Z,38.03
2022-11-24T14:30:04.689Z,29.08
2022-11-24T14:32:31.374Z,29.88
2022-11-24T14:35:00.298Z,31.75
2022-11-24T14:37:27.183Z,32.65
2022-11-24T14:39:53.862Z,29.95
2022-11-24T14:42:20.436Z,26.27
2022-11-24T14:44:51.656Z,27.77
2022-11-24T14:47:30.222Z,25.45
2022-11-24T14:50:13.112Z,23.02
2022-11-24T14:52:54.619Z,25.08
2022-11-24T14:55:32.398Z,26.65
2022-11-24T14:57:59.644Z,27.17
2022-11-24T15:00:31.046Z,26.30
2022-11-24T15:03:00.828Z,26.40
2022-11-24T15:05:55.090Z,28.92
2022-11-24T15:08:26.158Z,25.40
2022-11-24T15:11:02.245Z,26.80
2022-11-24T15:13:33.335Z,23.65
2022-11-24T15:16:03.689Z,24.00
2022-11-24T15:18:44.320Z,26.25
2022-11-24T15:21:18.564Z,25.60
2022-11-24T15:24:20.676Z,28.70
2022-11-24T15:26:47.285Z,36.90
2022-11-24T15:29:14.101Z,27.88
2022-11-24T15:31:43.320Z,28.95
2022-11-24T15:34:14.246Z,32.20
2022-11-24T15:36:41.083Z,28.70
2022-11-24T15:39:07.697Z,32.55
2022-11-24T15:41:35.097Z,34.55
2022-11-24T15:44:01.800Z,34.13
2022-11-24T15:46:30.196Z,27.33
2022-11-24T15:48:57.117Z,28.25
2022-11-24T15:51:26.043Z,33.28
2022-11-24T15:54:00.328Z,32.00
2022-11-24T15:58:59.208Z,26.85
2022-11-24T16:01:31.273Z,27.63
2022-11-24T16:03:58.097Z,30.85
2022-11-24T16:06:25.618Z,33.72
2022-11-24T16:08:53.535Z,34.03
2022-11-24T16:11:20.662Z,25.60
2022-11-24T16:13:52.497Z,26.33
2022-11-24T16:16:21.384Z,26.35
2022-11-24T16:18:48.096Z,30.67
2022-11-24T16:21:14.814Z,31.67
2022-11-24T16:23:41.684Z,31.40
2022-11-24T16:26:09.777Z,30.45
2022-11-24T16:28:36.575Z,33.65
2022-11-24T16:31:03.642Z,33.70
2022-11-24T16:33:30.374Z,37.22
2022-11-24T16:35:57.252Z,38.40
2022-11-24T16:38:23.916Z,39.20
2022-11-24T16:40:52.992Z,39.78
2022-11-24T16:43:20.071Z,37.88
2022-11-24T16:45:50.686Z,42.38
2022-11-24T16:48:17.326Z,35.25
2022-11-24T16:50:43.918Z,33.65
2022-11-24T16:53:10.503Z,33.75
2022-11-24T16:55:37.131Z,33.42
2022-11-24T16:58:04.992Z,31.60
2022-11-24T17:00:31.613Z,30.58
2022-11-24T17:02:58.230Z,30.88
2022-11-24T17:05:25.489Z,39.08
2022-11-24T17:07:52.181Z,38.38
2022-11-24T17:10:22.716Z,35.80
2022-11-24T17:12:49.381Z,33.83
2022-11-24T17:15:32.772Z,33.22
2022-11-24T17:18:23.397Z,30.67
2022-11-24T17:20:47.387Z,33.28
2022-11-24T17:23:14.072Z,173.27
2022-11-24T17:25:40.774Z,156.52
2022-11-24T17:28:07.802Z,117.03
2022-11-24T17:30:36.773Z,129.82
2022-11-24T17:33:03.420Z,84.03
2022-11-24T17:35:30.154Z,69.95
2022-11-24T17:37:58.086Z,99.38
2022-11-24T17:40:29.006Z,94.80
2022-11-24T17:42:59.846Z,71.40
2022-11-24T17:45:30.478Z,64.07
2022-11-24T17:48:00.341Z,58.08
2022-11-24T17:50:27.061Z,55.28
2022-11-24T17:52:54.240Z,58.20
2022-11-24T17:55:23.969Z,57.30
2022-11-24T17:57:51.483Z,72.85
2022-11-24T18:00:18.489Z,78.30
2022-11-24T18:02:46.442Z,75.63
2022-11-24T18:05:13.201Z,71.13
2022-11-24T18:07:39.814Z,70.25
2022-11-24T18:10:07.301Z,66.55
2022-11-24T18:12:34.018Z,70.57
2022-11-24T18:15:00.983Z,93.28
2022-11-24T18:17:28.881Z,85.45
2022-11-24T18:19:55.593Z,68.38
2022-11-24T18:22:50.063Z,72.28
2022-11-24T18:25:11.191Z,69.82
2022-11-24T18:27:37.845Z,71.13
2022-11-24T18:30:05.660Z,79.07
2022-11-24T18:32:32.534Z,70.32
2022-11-24T18:34:59.183Z,70.47
2022-11-24T18:37:25.766Z,61.63
2022-11-24T18:39:52.394Z,48.20
2022-11-24T18:42:20.715Z,45.35
2022-11-24T18:44:53.967Z,42.67
2022-11-24T18:47:21.094Z,52.63
2022-11-24T18:49:48.384Z,50.35
2022-11-24T18:52:15.018Z,38.88
2022-11-24T18:54:41.732Z,42.47
2022-11-24T18:57:08.304Z,40.28
2022-11-24T18:59:34.968Z,32.97
2022-11-24T19:02:01.680Z,31.17
2022-11-24T19:04:28.364Z,30.17
2022-11-24T19:06:55.026Z,34.40
2022-11-24T19:09:22.725Z,32.95
2022-11-24T19:11:49.884Z,33.40
2022-11-24T19:14:17.849Z,40.38
2022-11-24T19:16:46.145Z,34.38
2022-11-24T19:19:13.005Z,40.63
2022-11-24T19:21:40.165Z,36.63
2022-11-24T19:24:09.891Z,30.13
2022-11-24T19:26:37.258Z,41.95
2022-11-24T19:29:04.512Z,39.20
2022-11-24T19:31:31.714Z,35.63
2022-11-24T19:33:59.516Z,35.90
2022-11-24T19:36:26.288Z,55.10
2022-11-24T19:38:56.050Z,68.20
2022-11-24T19:41:25.512Z,44.17
2022-11-24T19:43:56.241Z,37.00
2022-11-24T19:46:26.959Z,32.13
2022-11-24T19:48:55.962Z,29.77
2022-11-24T19:51:28.217Z,33.05
2022-11-24T19:53:54.856Z,31.08
2022-11-24T19:56:28.105Z,30.23
2022-11-24T19:58:55.662Z,30.92
2022-11-24T20:01:28.326Z,30.67
2022-11-24T20:04:03.952Z,30.23
2022-11-24T20:06:37.290Z,31.85
2022-11-24T20:09:06.533Z,30.48
2022-11-24T20:11:33.183Z,27.92
2022-11-24T20:13:59.894Z,28.17
2022-11-24T20:16:29.791Z,29.73
2022-11-24T20:19:10.823Z,27.48
2022-11-24T20:21:38.974Z,27.30
2022-11-24T20:24:07.509Z,29.23
2022-11-24T20:26:40.520Z,25.67
2022-11-24T20:29:09.782Z,26.75
2022-11-24T20:31:38.965Z,25.30
2022-11-24T20:34:07.566Z,24.15
2022-11-24T20:36:36.856Z,25.08
2022-11-24T20:39:05.642Z,23.30
2022-11-24T20:41:34.073Z,21.30
2022-11-24T20:44:04.886Z,23.95
2022-11-24T20:46:33.289Z,22.02
2022-11-24T20:49:00.212Z,21.02
2022-11-24T20:51:33.251Z,19.08
2022-11-24T20:54:02.607Z,19.73
2022-11-24T20:56:32.347Z,20.30
2022-11-24T20:58:59.754Z,20.15
2022-11-24T21:01:29.851Z,19.52
2022-11-24T21:03:58.582Z,19.42
2022-11-24T21:06:26.452Z,20.55
2022-11-24T21:08:53.165Z,19.38
2022-11-24T21:11:20.698Z,19.75
2022-11-24T21:13:48.678Z,20.77
2022-11-24T21:16:21.243Z,20.13
2022-11-24T21:18:52.786Z,20.48
2022-11-24T21:21:20.941Z,19.75
2022-11-24T21:23:48.136Z,18.55
2022-11-24T21:26:17.207Z,20.48
2022-11-24T21:28:45.535Z,19.00
2022-11-24T21:31:14.581Z,18.10
2022-11-24T21:33:43.112Z,19.02
2022-11-24T21:36:09.800Z,18.65
2022-11-24T21:38:36.414Z,19.63
2022-11-24T21:41:05.486Z,19.58
2022-11-24T21:43:33.029Z,19.30
2022-11-24T21:46:01.988Z,21.45
2022-11-24T21:48:30.235Z,21.83
2022-11-24T21:51:02.090Z,21.58
2022-11-24T21:53:33.709Z,21.02
2022-11-24T21:56:02.852Z,34.03
2022-11-24T21:58:29.698Z,24.38
2022-11-24T22:01:02.900Z,22.55
2022-11-24T22:03:29.593Z,21.55
2022-11-24T22:05:57.797Z,22.08
2022-11-24T22:08:26.033Z,24.55
2022-11-24T22:11:08.165Z,42.67
2022-11-24T22:13:35.078Z,22.55
2022-11-24T22:16:07.300Z,23.50
2022-11-24T22:18:36.271Z,23.40
2022-11-24T22:21:03.321Z,24.30
2022-11-24T22:23:31.170Z,21.15
2022-11-24T22:26:11.376Z,20.10
2022-11-24T22:28:38.649Z,17.67
2022-11-24T22:31:11.438Z,18.25
2022-11-24T22:33:38.377Z,17.73
2022-11-24T22:36:05.321Z,25.33
2022-11-24T22:38:32.885Z,18.90
2022-11-24T22:41:04.148Z,16.20
2022-11-24T22:43:35.405Z,58.30
2022-11-24T22:46:03.881Z,19.45
2022-11-24T22:48:30.674Z,18.77
2022-11-24T22:51:02.529Z,18.27
2022-11-24T22:53:29.391Z,19.42
2022-11-24T22:56:10.384Z,18.27
2022-11-24T22:58:38.141Z,17.88
2022-11-24T23:01:10.910Z,17.52
2022-11-24T23:03:38.472Z,15.93
2022-11-24T23:06:12.361Z,15.98
2022-11-24T23:08:39.807Z,16.17
2022-11-24T23:11:12.100Z,16.38
2022-11-24T23:13:39.731Z,15.43
2022-11-24T23:16:15.999Z,15.93
2022-11-24T23:18:43.718Z,16.33
2022-11-24T23:21:25.634Z,15.50
2022-11-24T23:23:53.244Z,15.48
2022-11-24T23:26:28.610Z,16.30
2022-11-24T23:28:55.498Z,19.48
2022-11-24T23:31:29.315Z,16.35
2022-11-24T23:33:58.460Z,16.50
2022-11-24T23:36:25.983Z,17.30
2022-11-24T23:38:53.196Z,20.15
2022-11-24T23:41:25.127Z,17.42
2022-11-24T23:43:52.671Z,25.67
2022-11-24T23:46:21.830Z,24.35
2022-11-24T23:48:49.937Z,19.25
2022-11-24T23:51:19.219Z,27.98
2022-11-24T23:53:46.158Z,19.92
2022-11-24T23:56:18.300Z,63.05
2022-11-24T23:58:45.359Z,17.73
